createdAt,value
2023-02-06T00:01:26.330Z,5.75
2023-02-06T00:03:53.144Z,5.63
2023-02-06T00:06:20.443Z,4.90
2023-02-06T00:08:47.147Z,5.35
2023-02-06T00:11:16.810Z,5.20
2023-02-06T00:13:44.998Z,5.00
2023-02-06T00:16:22.357Z,5.05
2023-02-06T00:18:50.114Z,4.88
2023-02-06T00:21:20.359Z,5.68
2023-02-06T00:23:50.686Z,5.40
2023-02-06T00:26:18.398Z,5.10
2023-02-06T00:28:46.200Z,5.25
2023-02-06T00:31:13.793Z,5.75
2023-02-06T00:33:40.780Z,5.68
2023-02-06T00:36:07.942Z,5.00
2023-02-06T00:38:35.988Z,5.88
2023-02-06T00:41:02.761Z,5.47
2023-02-06T00:43:29.748Z,6.28
2023-02-06T00:45:57.740Z,6.00
2023-02-06T00:48:25.695Z,5.45
2023-02-06T00:50:53.718Z,6.25
2023-02-06T00:53:20.764Z,6.38
2023-02-06T00:55:47.330Z,6.18
2023-02-06T00:58:14.182Z,5.57
2023-02-06T01:00:44.346Z,5.75
2023-02-06T01:03:11.219Z,5.80
2023-02-06T01:05:38.370Z,5.82
2023-02-06T01:08:05.156Z,5.68
2023-02-06T01:10:32.503Z,5.53
2023-02-06T01:13:00.025Z,5.75
2023-02-06T01:15:26.998Z,5.35
2023-02-06T01:17:53.748Z,5.47
2023-02-06T01:20:21.789Z,5.65
2023-02-06T01:22:48.556Z,5.25
2023-02-06T01:25:15.345Z,5.10
2023-02-06T01:27:42.116Z,5.03
2023-02-06T01:30:09.957Z,5.45
2023-02-06T01:32:41.174Z,5.18
2023-02-06T01:35:09.854Z,5.13
2023-02-06T01:37:37.656Z,4.97
2023-02-06T01:40:06.329Z,4.60
2023-02-06T01:42:38.047Z,4.80
2023-02-06T01:45:26.759Z,4.88
2023-02-06T01:48:07.169Z,4.65
2023-02-06T01:50:38.223Z,4.82
2023-02-06T01:53:06.584Z,5.10
2023-02-06T01:55:36.314Z,4.07
2023-02-06T01:58:04.523Z,5.05
2023-02-06T02:00:31.358Z,5.20
2023-02-06T02:02:58.001Z,4.50
2023-02-06T02:05:24.891Z,5.18
2023-02-06T02:08:01.182Z,4.28
2023-02-06T02:10:30.719Z,4.70
2023-02-06T02:12:57.851Z,4.30
2023-02-06T02:15:40.771Z,5.25
2023-02-06T02:18:13.666Z,5.35
2023-02-06T02:20:54.428Z,4.10
2023-02-06T02:23:33.421Z,4.68
2023-02-06T02:26:12.358Z,4.65
2023-02-06T02:29:01.075Z,4.70
2023-02-06T02:31:40.117Z,5.05
2023-02-06T02:34:19.688Z,5.10
2023-02-06T02:36:54.182Z,4.82
2023-02-06T02:39:31.323Z,4.82
2023-02-06T02:42:19.215Z,4.45
2023-02-06T02:45:10.653Z,4.85
2023-02-06T02:47:47.568Z,4.70
2023-02-06T02:50:16.072Z,5.60
2023-02-06T02:52:43.244Z,5.07
2023-02-06T02:55:18.094Z,5.55
2023-02-06T02:57:49.066Z,5.10
2023-02-06T03:00:17.862Z,5.60
2023-02-06T03:02:48.390Z,5.60
2023-02-06T03:05:20.167Z,5.20
2023-02-06T03:08:00.720Z,4.80
2023-02-06T03:10:31.878Z,5.55
2023-02-06T03:13:10.058Z,6.10
2023-02-06T03:16:14.545Z,5.13
2023-02-06T03:18:49.113Z,4.90
2023-02-06T03:21:19.986Z,5.03
2023-02-06T03:23:50.196Z,5.32
2023-02-06T03:26:22.689Z,5.70
2023-02-06T03:28:52.983Z,5.13
2023-02-06T03:31:45.284Z,3.95
2023-02-06T03:34:22.758Z,4.57
2023-02-06T03:36:55.691Z,4.60
2023-02-06T03:39:23.140Z,5.75
2023-02-06T03:41:51.422Z,4.95
2023-02-06T03:44:26.281Z,5.00
2023-02-06T03:46:56.268Z,4.53
2023-02-06T03:49:26.787Z,5.07
2023-02-06T03:52:05.528Z,5.90
2023-02-06T03:54:35.911Z,4.88
2023-02-06T03:57:08.165Z,4.70
2023-02-06T03:59:35.040Z,5.05
2023-02-06T04:02:04.112Z,5.75
2023-02-06T04:04:42.451Z,5.20
2023-02-06T04:07:20.698Z,5.82
2023-02-06T04:09:48.274Z,5.68
2023-02-06T04:12:15.561Z,5.15
2023-02-06T04:14:43.467Z,5.97
2023-02-06T04:17:11.213Z,5.38
2023-02-06T04:19:38.454Z,5.45
2023-02-06T04:22:07.071Z,5.32
2023-02-06T04:24:33.911Z,5.25
2023-02-06T04:27:00.554Z,5.50
2023-02-06T04:29:27.270Z,5.32
2023-02-06T04:31:54.349Z,5.10
2023-02-06T04:34:21.114Z,5.20
2023-02-06T04:36:47.825Z,6.03
2023-02-06T04:39:14.596Z,5.25
2023-02-06T04:41:41.277Z,5.78
2023-02-06T04:44:07.937Z,5.32
2023-02-06T04:46:35.101Z,5.68
2023-02-06T04:49:01.658Z,5.47
2023-02-06T04:51:28.213Z,5.43
2023-02-06T04:53:55.235Z,5.35
2023-02-06T04:56:22.086Z,4.63
2023-02-06T04:58:48.786Z,5.35
2023-02-06T05:01:16.971Z,5.10
2023-02-06T05:03:44.126Z,4.88
2023-02-06T05:06:11.061Z,5.55
2023-02-06T05:08:37.948Z,6.05
2023-02-06T05:11:05.193Z,5.15
2023-02-06T05:13:33.875Z,5.07
2023-02-06T05:16:12.818Z,5.38
2023-02-06T05:18:40.106Z,5.20
2023-02-06T05:21:07.606Z,5.20
2023-02-06T05:23:34.177Z,5.55
2023-02-06T05:26:01.264Z,6.07
2023-02-06T05:28:29.954Z,6.72
2023-02-06T05:30:57.063Z,6.75
2023-02-06T05:33:23.812Z,6.18
2023-02-06T05:35:50.348Z,5.68
2023-02-06T05:38:17.512Z,5.50
2023-02-06T05:40:44.451Z,5.13
2023-02-06T05:43:11.824Z,6.03
2023-02-06T05:45:38.609Z,5.55
2023-02-06T05:48:05.519Z,4.95
2023-02-06T05:50:32.171Z,5.30
2023-02-06T05:52:59.004Z,4.80
2023-02-06T05:55:25.788Z,5.10
2023-02-06T05:57:52.523Z,5.45
2023-02-06T06:00:19.605Z,5.10
2023-02-06T06:02:46.338Z,5.25
2023-02-06T06:05:13.022Z,5.18
2023-02-06T06:07:39.660Z,5.55
2023-02-06T06:10:06.742Z,4.03
2023-02-06T06:12:33.305Z,4.43
2023-02-06T06:14:59.998Z,4.80
2023-02-06T06:17:29.745Z,5.63
2023-02-06T06:19:56.419Z,4.70
2023-02-06T06:22:23.054Z,5.85
2023-02-06T06:24:49.587Z,5.32
2023-02-06T06:27:16.372Z,5.60
2023-02-06T06:29:43.353Z,6.20
2023-02-06T06:32:09.923Z,6.53
2023-02-06T06:34:36.683Z,6.65
2023-02-06T06:37:03.391Z,5.72
2023-02-06T06:39:30.159Z,5.30
2023-02-06T06:41:56.781Z,5.63
2023-02-06T06:44:23.728Z,5.15
2023-02-06T06:46:50.534Z,5.35
2023-02-06T06:49:17.789Z,5.55
2023-02-06T06:51:44.365Z,6.30
2023-02-06T06:54:11.039Z,5.88
2023-02-06T06:56:37.694Z,5.20
2023-02-06T06:59:04.336Z,5.82
2023-02-06T07:01:31.147Z,5.60
2023-02-06T07:04:00.576Z,6.05
2023-02-06T07:06:27.810Z,5.55
2023-02-06T07:08:54.351Z,5.00
2023-02-06T07:11:20.954Z,5.80
2023-02-06T07:13:47.762Z,5.15
2023-02-06T07:16:14.596Z,5.22
2023-02-06T07:18:42.988Z,5.82
2023-02-06T07:21:10.670Z,5.55
2023-02-06T07:23:38.108Z,6.72
2023-02-06T07:26:05.448Z,6.95
2023-02-06T07:28:32.896Z,6.00
2023-02-06T07:31:03.815Z,6.97
2023-02-06T07:33:30.356Z,6.50
2023-02-06T07:35:57.598Z,7.05
2023-02-06T07:38:24.580Z,7.75
2023-02-06T07:40:51.308Z,7.38
2023-02-06T07:43:18.070Z,7.45
2023-02-06T07:45:44.966Z,6.53
2023-02-06T07:48:11.812Z,7.40
2023-02-06T07:50:38.582Z,7.70
2023-02-06T07:53:05.254Z,6.95
2023-02-06T07:55:31.846Z,5.82
2023-02-06T07:57:58.584Z,7.43
2023-02-06T08:00:25.091Z,6.93
2023-02-06T08:02:52.007Z,7.18
2023-02-06T08:05:19.176Z,7.07
2023-02-06T08:07:45.800Z,6.80
2023-02-06T08:10:12.424Z,7.40
2023-02-06T08:12:39.060Z,7.05
2023-02-06T08:15:05.903Z,6.10
2023-02-06T08:17:32.578Z,6.88
2023-02-06T08:19:59.436Z,6.15
2023-02-06T08:22:29.834Z,5.75
2023-02-06T08:24:56.640Z,6.35
2023-02-06T08:27:23.311Z,6.82
2023-02-06T08:29:51.644Z,6.65
2023-02-06T08:32:18.192Z,5.53
2023-02-06T08:34:44.902Z,4.90
2023-02-06T08:37:11.545Z,5.50
2023-02-06T08:39:38.390Z,5.38
2023-02-06T08:42:05.128Z,5.45
2023-02-06T08:44:32.051Z,4.68
2023-02-06T08:47:09.247Z,5.70
2023-02-06T08:49:36.998Z,4.55
2023-02-06T08:52:03.618Z,4.18
2023-02-06T08:54:30.431Z,4.05
2023-02-06T08:56:58.443Z,5.07
2023-02-06T08:59:25.150Z,5.10
2023-02-06T09:01:52.316Z,5.13
2023-02-06T09:04:19.536Z,4.55
2023-02-06T09:06:48.936Z,5.15
2023-02-06T09:09:15.748Z,4.28
2023-02-06T09:11:43.036Z,4.97
2023-02-06T09:14:14.428Z,4.47
2023-02-06T09:16:40.991Z,4.68
2023-02-06T09:19:08.039Z,4.72
2023-02-06T09:21:37.442Z,4.20
2023-02-06T09:24:06.932Z,4.05
2023-02-06T09:26:53.469Z,4.68
2023-02-06T09:29:24.961Z,4.47
2023-02-06T09:31:51.666Z,4.45
2023-02-06T09:34:18.344Z,4.38
2023-02-06T09:36:45.032Z,4.07
2023-02-06T09:39:11.598Z,3.35
2023-02-06T09:42:03.168Z,3.67
2023-02-06T09:44:39.105Z,3.80
2023-02-06T09:47:28.150Z,3.70
2023-02-06T09:49:59.529Z,3.40
2023-02-06T09:52:52.596Z,3.10
2023-02-06T09:55:30.623Z,2.78
2023-02-06T09:58:19.250Z,3.28
2023-02-06T10:00:55.592Z,2.72
2023-02-06T10:03:47.068Z,3.40
2023-02-06T10:06:20.807Z,3.50
2023-02-06T10:09:10.103Z,3.67
2023-02-06T10:11:48.376Z,3.10
2023-02-06T10:14:33.682Z,3.58
2023-02-06T10:17:04.900Z,3.17
2023-02-06T10:19:48.314Z,3.70
2023-02-06T10:22:31.151Z,3.83
2023-02-06T10:25:03.770Z,3.75
2023-02-06T10:27:33.594Z,3.60
2023-02-06T10:30:01.449Z,3.25
2023-02-06T10:32:34.111Z,3.42
2023-02-06T10:35:00.666Z,3.00
2023-02-06T10:37:39.698Z,3.13
2023-02-06T10:40:43.382Z,3.38
2023-02-06T10:43:24.721Z,3.35
2023-02-06T10:46:03.300Z,3.15
2023-02-06T10:48:50.750Z,3.65
2023-02-06T10:51:38.662Z,3.20
2023-02-06T10:54:18.350Z,2.33
2023-02-06T10:56:47.626Z,3.92
2023-02-06T10:59:37.648Z,3.17
2023-02-06T11:02:12.079Z,2.95
2023-02-06T11:04:42.569Z,3.22
2023-02-06T11:07:17.469Z,3.20
2023-02-06T11:09:44.903Z,2.97
2023-02-06T11:12:39.500Z,2.80
2023-02-06T11:15:23.802Z,3.08
2023-02-06T11:17:52.849Z,3.50
2023-02-06T11:20:28.252Z,2.90
2023-02-06T11:22:55.119Z,3.00
2023-02-06T11:25:49.058Z,2.88
2023-02-06T11:28:39.656Z,3.00
2023-02-06T11:31:08.709Z,2.75
2023-02-06T11:33:46.144Z,2.75
2023-02-06T11:36:22.646Z,2.60
2023-02-06T11:39:10.295Z,2.22
2023-02-06T11:41:37.320Z,2.80
2023-02-06T11:44:06.537Z,3.13
2023-02-06T11:46:35.785Z,2.90
2023-02-06T11:49:26.176Z,2.78
2023-02-06T11:52:00.666Z,2.60
2023-02-06T11:54:29.289Z,2.67
2023-02-06T11:57:05.139Z,2.65
2023-02-06T11:59:34.577Z,2.30
2023-02-06T12:02:05.848Z,2.42
2023-02-06T12:04:40.701Z,2.38
2023-02-06T12:07:16.536Z,2.13
2023-02-06T12:09:43.426Z,2.30
2023-02-06T12:12:30.748Z,2.53
2023-02-06T12:15:36.190Z,2.10
2023-02-06T12:18:05.977Z,2.50
2023-02-06T12:20:36.713Z,2.30
2023-02-06T12:23:11.745Z,2.10
2023-02-06T12:25:41.656Z,1.90
2023-02-06T12:28:21.202Z,2.33
2023-02-06T12:30:55.625Z,2.33
2023-02-06T12:33:35.532Z,2.15
2023-02-06T12:36:12.047Z,2.05
2023-02-06T12:38:57.308Z,2.25
2023-02-06T12:41:45.958Z,2.55
2023-02-06T12:44:38.330Z,2.67
2023-02-06T12:47:24.451Z,3.05
2023-02-06T12:49:50.978Z,2.92
2023-02-06T12:52:25.711Z,3.15
2023-02-06T12:55:02.203Z,2.88
2023-02-06T12:57:31.549Z,2.70
2023-02-06T13:00:11.765Z,2.72
2023-02-06T13:03:01.768Z,2.70
2023-02-06T13:05:32.989Z,2.72
2023-02-06T13:08:07.920Z,2.60
2023-02-06T13:10:37.561Z,2.53
2023-02-06T13:13:04.949Z,2.88
2023-02-06T13:15:55.040Z,3.30
2023-02-06T13:18:52.622Z,2.88
2023-02-06T13:21:25.256Z,2.97
2023-02-06T13:24:14.762Z,3.15
2023-02-06T13:27:00.502Z,3.20
2023-02-06T13:29:27.183Z,2.67
2023-02-06T13:32:12.314Z,2.80
2023-02-06T13:34:45.087Z,3.22
2023-02-06T13:37:38.908Z,2.40
2023-02-06T13:40:17.758Z,2.67
2023-02-06T13:42:49.485Z,3.13
2023-02-06T13:45:40.365Z,2.97
2023-02-06T13:48:23.840Z,2.33
2023-02-06T13:50:59.658Z,3.17
2023-02-06T13:53:38.843Z,2.97
2023-02-06T13:56:15.607Z,2.92
2023-02-06T13:58:52.407Z,3.15
2023-02-06T14:01:23.322Z,3.55
2023-02-06T14:03:51.401Z,2.47
2023-02-06T14:06:27.561Z,3.20
2023-02-06T14:09:12.755Z,2.88
2023-02-06T14:12:03.965Z,2.47
2023-02-06T14:14:41.085Z,2.40
2023-02-06T14:17:13.704Z,2.58
2023-02-06T14:19:49.828Z,2.85
2023-02-06T14:22:42.613Z,3.63
2023-02-06T14:25:39.172Z,2.38
2023-02-06T14:28:22.060Z,2.80
2023-02-06T14:31:27.161Z,2.50
2023-02-06T14:34:19.801Z,2.80
2023-02-06T14:37:10.312Z,2.85
2023-02-06T14:40:33.540Z,2.75
2023-02-06T14:43:05.043Z,2.67
2023-02-06T14:45:41.714Z,3.17
2023-02-06T14:48:41.114Z,2.47
2023-02-06T14:51:18.138Z,2.25
2023-02-06T14:53:53.241Z,2.55
2023-02-06T14:56:28.967Z,3.20
2023-02-06T14:58:55.838Z,1.90
2023-02-06T15:01:27.875Z,2.42
2023-02-06T15:04:13.443Z,2.67
2023-02-06T15:06:51.033Z,2.58
2023-02-06T15:09:26.079Z,2.60
2023-02-06T15:11:54.938Z,2.92
2023-02-06T15:14:33.448Z,2.58
2023-02-06T15:17:02.566Z,2.45
2023-02-06T15:19:35.486Z,2.38
2023-02-06T15:22:12.927Z,2.30
2023-02-06T15:25:11.277Z,2.17
2023-02-06T15:27:39.551Z,1.90
2023-02-06T15:30:22.136Z,1.98
2023-02-06T15:32:51.444Z,2.38
2023-02-06T15:35:30.727Z,2.50
2023-02-06T15:38:04.573Z,2.30
2023-02-06T15:40:35.411Z,2.67
2023-02-06T15:43:03.094Z,2.33
2023-02-06T15:45:36.405Z,2.17
2023-02-06T15:48:13.525Z,2.25
2023-02-06T15:50:40.360Z,2.25
2023-02-06T15:53:18.232Z,2.80
2023-02-06T15:55:53.265Z,2.70
2023-02-06T15:58:21.007Z,2.33
2023-02-06T16:00:54.583Z,2.35
2023-02-06T16:03:24.582Z,2.30
2023-02-06T16:05:52.656Z,2.83
2023-02-06T16:08:34.774Z,2.97
2023-02-06T16:11:28.028Z,2.40
2023-02-06T16:13:55.285Z,2.13
2023-02-06T16:16:25.047Z,2.88
2023-02-06T16:18:53.404Z,2.80
2023-02-06T16:21:28.863Z,3.08
2023-02-06T16:23:59.788Z,2.05
2023-02-06T16:26:29.622Z,2.70
2023-02-06T16:29:08.720Z,1.90
2023-02-06T16:31:39.047Z,2.13
2023-02-06T16:34:35.492Z,2.40
2023-02-06T16:37:10.865Z,2.28
2023-02-06T16:39:40.593Z,2.47
2023-02-06T16:42:07.231Z,2.33
2023-02-06T16:44:44.856Z,2.40
2023-02-06T16:47:15.017Z,2.22
2023-02-06T16:49:41.912Z,2.22
2023-02-06T16:52:16.853Z,1.90
2023-02-06T16:54:44.824Z,2.08
2023-02-06T16:57:29.579Z,2.45
2023-02-06T16:59:56.863Z,2.33
2023-02-06T17:02:24.160Z,1.88
2023-02-06T17:04:51.033Z,2.50
2023-02-06T17:07:21.599Z,2.53
2023-02-06T17:09:50.074Z,2.10
2023-02-06T17:12:20.279Z,2.35
2023-02-06T17:14:48.675Z,1.77
2023-02-06T17:17:18.498Z,2.20
2023-02-06T17:19:46.018Z,2.78
2023-02-06T17:22:13.201Z,2.33
2023-02-06T17:24:40.677Z,2.65
2023-02-06T17:27:11.812Z,2.72
2023-02-06T17:29:38.547Z,3.70
2023-02-06T17:32:06.858Z,4.60
2023-02-06T17:34:33.864Z,4.28
2023-02-06T17:37:01.702Z,5.80
2023-02-06T17:39:28.713Z,4.65
2023-02-06T17:41:55.453Z,4.68
2023-02-06T17:44:22.292Z,3.72
2023-02-06T17:46:49.689Z,3.90
2023-02-06T17:49:17.796Z,4.22
2023-02-06T17:51:45.684Z,4.32
2023-02-06T17:54:12.797Z,5.03
2023-02-06T17:56:39.777Z,5.07
2023-02-06T17:59:06.639Z,4.20
2023-02-06T18:01:33.296Z,7.25
2023-02-06T18:04:01.023Z,5.65
2023-02-06T18:06:32.248Z,3.78
2023-02-06T18:08:58.815Z,3.03
2023-02-06T18:11:25.750Z,3.17
2023-02-06T18:13:53.842Z,3.90
2023-02-06T18:16:24.664Z,3.20
2023-02-06T18:18:51.633Z,2.70
2023-02-06T18:21:19.702Z,2.95
2023-02-06T18:23:48.116Z,2.70
2023-02-06T18:26:15.924Z,2.95
2023-02-06T18:28:42.660Z,3.38
2023-02-06T18:31:28.179Z,3.55
2023-02-06T18:33:55.959Z,3.45
2023-02-06T18:36:23.703Z,3.78
2023-02-06T18:38:50.653Z,3.53
2023-02-06T18:41:36.261Z,3.78
2023-02-06T18:44:07.274Z,3.80
2023-02-06T18:46:35.319Z,4.07
2023-02-06T18:49:02.173Z,4.82
2023-02-06T18:51:29.590Z,4.25
2023-02-06T18:53:57.528Z,4.03
2023-02-06T18:56:24.354Z,3.92
2023-02-06T18:58:51.176Z,4.07
2023-02-06T19:01:24.232Z,3.90
2023-02-06T19:03:52.649Z,4.85
2023-02-06T19:06:31.752Z,3.60
2023-02-06T19:08:58.957Z,5.00
2023-02-06T19:11:26.343Z,4.40
2023-02-06T19:13:53.383Z,3.25
2023-02-06T19:16:21.617Z,3.20
2023-02-06T19:18:49.350Z,3.45
2023-02-06T19:21:18.759Z,3.97
2023-02-06T19:23:48.250Z,3.15
2023-02-06T19:26:17.504Z,3.58
2023-02-06T19:28:45.053Z,3.65
2023-02-06T19:31:13.278Z,4.25
2023-02-06T19:33:41.720Z,3.65
2023-02-06T19:36:13.726Z,4.22
2023-02-06T19:41:15.680Z,3.20
2023-02-06T19:43:42.697Z,3.72
2023-02-06T19:46:11.985Z,2.92
2023-02-06T19:48:43.112Z,3.67
2023-02-06T19:51:15.056Z,4.57
2023-02-06T19:53:45.716Z,3.80
2023-02-06T19:56:27.057Z,3.92
2023-02-06T19:58:55.483Z,3.40
2023-02-06T20:01:23.193Z,4.50
2023-02-06T20:03:51.216Z,4.28
2023-02-06T20:06:18.551Z,3.40
2023-02-06T20:08:46.740Z,3.38
2023-02-06T20:11:16.605Z,4.20
2023-02-06T20:13:43.989Z,3.95
2023-02-06T20:16:17.639Z,3.50
2023-02-06T20:18:45.162Z,4.57
2023-02-06T20:21:27.929Z,4.38
2023-02-06T20:23:56.445Z,3.85
2023-02-06T20:26:25.605Z,3.97
2023-02-06T20:28:52.777Z,4.10
2023-02-06T20:31:20.144Z,3.85
2023-02-06T20:33:48.001Z,4.57
2023-02-06T20:36:20.480Z,4.60
2023-02-06T20:38:52.392Z,4.03
2023-02-06T20:41:22.177Z,4.30
2023-02-06T20:43:48.850Z,4.70
2023-02-06T20:46:17.240Z,4.25
2023-02-06T20:48:46.101Z,4.05
2023-02-06T20:51:14.202Z,4.30
2023-02-06T20:53:41.268Z,4.18
2023-02-06T20:56:12.747Z,3.67
2023-02-06T20:58:39.533Z,3.72
2023-02-06T21:01:12.959Z,4.50
2023-02-06T21:03:39.716Z,4.90
2023-02-06T21:06:06.470Z,4.90
2023-02-06T21:08:34.737Z,4.88
2023-02-06T21:11:02.267Z,4.70
2023-02-06T21:13:29.101Z,5.45
2023-02-06T21:15:57.910Z,4.45
2023-02-06T21:18:27.553Z,4.22
2023-02-06T21:20:56.034Z,4.68
2023-02-06T21:23:24.405Z,4.68
2023-02-06T21:25:55.504Z,4.97
2023-02-06T21:28:22.341Z,4.28
2023-02-06T21:30:49.971Z,4.65
2023-02-06T21:33:19.990Z,4.82
2023-02-06T21:35:52.864Z,4.72
2023-02-06T21:38:20.393Z,4.35
2023-02-06T21:40:47.228Z,3.70
2023-02-06T21:43:16.867Z,4.80
2023-02-06T21:45:46.327Z,4.57
2023-02-06T21:48:13.193Z,4.47
2023-02-06T21:50:41.107Z,5.13
2023-02-06T21:53:11.728Z,3.78
2023-02-06T21:55:43.403Z,4.97
2023-02-06T21:58:14.559Z,4.55
2023-02-06T22:00:46.112Z,5.03
2023-02-06T22:03:13.793Z,6.05
2023-02-06T22:05:40.681Z,4.85
2023-02-06T22:08:07.503Z,4.55
2023-02-06T22:10:37.725Z,5.35
2023-02-06T22:13:05.983Z,4.97
2023-02-06T22:15:33.715Z,4.05
2023-02-06T22:18:00.647Z,4.40
2023-02-06T22:20:27.780Z,4.68
2023-02-06T22:22:57.677Z,4.82
2023-02-06T22:25:24.380Z,4.30
2023-02-06T22:27:50.984Z,4.03
2023-02-06T22:30:17.903Z,5.85
2023-02-06T22:32:44.587Z,5.80
2023-02-06T22:35:11.260Z,5.18
2023-02-06T22:37:37.853Z,3.95
2023-02-06T22:40:05.066Z,5.97
2023-02-06T22:42:31.704Z,4.55
2023-02-06T22:44:58.584Z,6.03
2023-02-06T22:47:25.109Z,6.30
2023-02-06T22:49:52.715Z,5.43
2023-02-06T22:52:38.150Z,6.07
2023-02-06T22:55:05.798Z,4.95
2023-02-06T22:57:35.172Z,5.22
2023-02-06T23:00:02.372Z,5.78
2023-02-06T23:02:28.965Z,5.97
2023-02-06T23:04:55.785Z,5.85
2023-02-06T23:07:22.330Z,5.47
2023-02-06T23:09:48.951Z,5.85
2023-02-06T23:12:16.326Z,4.57
2023-02-06T23:14:43.249Z,4.90
2023-02-06T23:17:10.873Z,6.20
2023-02-06T23:19:39.245Z,5.03
2023-02-06T23:22:06.308Z,4.85
2023-02-06T23:24:33.154Z,5.30
2023-02-06T23:26:59.812Z,5.45
2023-02-06T23:29:26.437Z,5.15
2023-02-06T23:31:53.541Z,5.03
2023-02-06T23:34:23.649Z,5.93
2023-02-06T23:36:51.829Z,5.30
2023-02-06T23:39:18.754Z,4.78
2023-02-06T23:41:45.743Z,5.03
2023-02-06T23:44:12.441Z,5.60
2023-02-06T23:46:40.332Z,4.30
2023-02-06T23:49:10.989Z,5.43
2023-02-06T23:51:38.258Z,5.35
2023-02-06T23:54:06.243Z,5.25
2023-02-06T23:56:33.703Z,6.40
2023-02-06T23:59:02.279Z,5.47
